Time;durP1;ratioP1;P1;durP2;ratioP2;P2;SDS_P1;SDS_P2;PMS_P1;PMS_P2;Temp;Humidity;BMP_temperature;BMP_pressure;BME280_temperature;BME280_humidity;BME280_pressure;Samples;Min_cycle;Max_cycle;Signal;HPM_P1;HPM_P2
2021/07/14 00:00:34;;;;;;;20.63;15.97;;;22.60;99.90;;;;;;6129551;23;20442;-44
2021/07/14 00:03:02;;;;;;;17.10;15.30;;;22.60;99.90;;;;;;6129739;23;20414;-51
2021/07/14 00:05:32;;;;;;;18.70;16.00;;;22.60;99.90;;;;;;6129535;23;20418;-48
2021/07/14 00:07:59;;;;;;;21.53;17.70;;;22.60;99.90;;;;;;6129677;23;20494;-48
2021/07/14 00:10:28;;;;;;;16.70;14.77;;;22.60;99.90;;;;;;6129143;23;20469;-43
2021/07/14 00:13:00;;;;;;;17.73;15.97;;;22.60;99.90;;;;;;6129697;23;20406;-46
2021/07/14 00:23:51;;;;;;;18.00;15.90;;;22.40;99.90;;;;;;6129687;23;20394;-50
2021/07/14 00:26:17;;;;;;;16.97;14.80;;;22.40;99.90;;;;;;6129887;23;20426;-51
2021/07/14 00:28:48;;;;;;;16.40;14.80;;;22.40;99.90;;;;;;6129212;23;20500;-49
2021/07/14 00:31:15;;;;;;;30.33;15.80;;;22.30;99.90;;;;;;6129361;23;20391;-50
2021/07/14 00:33:44;;;;;;;19.33;17.07;;;22.30;99.90;;;;;;6129546;23;20427;-45
2021/07/14 00:36:11;;;;;;;18.10;16.20;;;22.20;99.90;;;;;;6128883;23;20413;-47
2021/07/14 00:38:39;;;;;;;18.07;16.27;;;22.20;99.90;;;;;;6129657;23;20749;-46
2021/07/14 00:41:07;;;;;;;18.97;16.93;;;22.20;99.90;;;;;;6129358;23;20447;-46
2021/07/14 00:43:34;;;;;;;17.70;15.90;;;22.30;99.90;;;;;;6129682;23;20407;-48
2021/07/14 00:46:18;;;;;;;17.97;16.23;;;22.20;99.90;;;;;;6129632;23;20468;-48
2021/07/14 00:48:47;;;;;;;18.50;16.47;;;22.20;99.90;;;;;;6129599;23;20407;-49
2021/07/14 00:51:14;;;;;;;16.97;15.30;;;22.30;99.90;;;;;;6128989;23;20438;-47
2021/07/14 00:53:42;;;;;;;15.70;14.00;;;22.30;99.90;;;;;;6129247;23;20528;-47
2021/07/14 00:56:08;;;;;;;17.20;15.43;;;22.30;99.90;;;;;;6129450;23;20768;-51
2021/07/14 00:58:35;;;;;;;21.80;17.30;;;22.30;99.90;;;;;;6129135;23;20415;-49
2021/07/14 01:01:03;;;;;;;22.20;18.00;;;22.30;99.90;;;;;;6129235;23;20443;-48
2021/07/14 01:03:32;;;;;;;19.37;17.20;;;22.30;99.90;;;;;;6129162;23;20418;-51
2021/07/14 01:06:03;;;;;;;21.07;18.77;;;22.30;99.90;;;;;;6129122;23;20478;-44
2021/07/14 01:08:42;;;;;;;19.03;17.13;;;22.30;99.90;;;;;;6129378;23;20458;-46
2021/07/14 01:11:13;;;;;;;17.47;15.43;;;22.20;99.90;;;;;;6129095;23;20387;-46
2021/07/14 01:13:45;;;;;;;19.67;17.13;;;22.20;99.90;;;;;;6129315;23;20490;-44
2021/07/14 01:16:16;;;;;;;18.30;15.50;;;22.20;99.90;;;;;;6129510;23;20683;-44
2021/07/14 01:18:51;;;;;;;20.27;16.33;;;22.20;99.90;;;;;;6129281;23;20387;-52
2021/07/14 01:21:26;;;;;;;18.07;16.17;;;22.20;99.90;;;;;;6128946;23;20433;-50
2021/07/14 01:24:01;;;;;;;19.03;17.03;;;22.20;99.90;;;;;;6128908;23;20395;-43
2021/07/14 01:26:38;;;;;;;24.30;17.50;;;22.20;99.90;;;;;;6128928;23;20394;-47
2021/07/14 01:29:08;;;;;;;19.87;15.90;;;22.20;99.90;;;;;;6129235;23;20386;-46
2021/07/14 01:31:38;;;;;;;17.50;15.60;;;22.10;99.90;;;;;;6129642;23;20484;-45
2021/07/14 01:34:07;;;;;;;19.50;16.40;;;22.10;99.90;;;;;;6129065;23;20469;-47
2021/07/14 01:36:37;;;;;;;17.83;15.93;;;22.10;99.90;;;;;;6128765;23;20433;-50
2021/07/14 01:39:05;;;;;;;20.10;16.80;;;22.00;99.90;;;;;;6129015;23;20409;-50
2021/07/14 01:41:35;;;;;;;19.00;17.00;;;22.00;99.90;;;;;;6128686;23;20473;-49
2021/07/14 01:44:03;;;;;;;23.30;17.53;;;22.00;99.90;;;;;;6128556;23;20462;-48
2021/07/14 01:46:34;;;;;;;18.50;16.50;;;22.00;99.90;;;;;;6128536;23;20469;-48
2021/07/14 01:49:04;;;;;;;17.60;15.60;;;22.00;99.90;;;;;;6128457;23;20395;-47
2021/07/14 01:51:33;;;;;;;19.80;17.00;;;22.00;99.90;;;;;;6129230;23;20474;-46
2021/07/14 01:54:04;;;;;;;15.27;13.67;;;22.00;99.90;;;;;;6128234;23;20881;-49
2021/07/14 01:56:33;;;;;;;17.63;15.20;;;22.00;99.90;;;;;;6128910;23;20438;-46
2021/07/14 01:59:01;;;;;;;17.43;15.13;;;22.00;99.90;;;;;;6128897;23;20407;-46
2021/07/14 02:01:30;;;;;;;19.13;16.97;;;22.00;99.90;;;;;;6128851;23;20726;-48
2021/07/14 02:06:47;;;;;;;19.83;16.67;;;22.00;99.90;;;;;;6128679;23;20641;-51
2021/07/14 02:09:14;;;;;;;19.50;16.23;;;21.90;99.90;;;;;;6129154;23;20824;-48
2021/07/14 02:11:44;;;;;;;19.13;17.20;;;21.90;99.90;;;;;;6128972;23;20419;-49
2021/07/14 02:14:14;;;;;;;25.33;17.13;;;21.90;99.90;;;;;;6128542;23;20465;-47
2021/07/14 02:16:41;;;;;;;20.47;15.50;;;21.90;99.90;;;;;;6129306;23;20405;-44
2021/07/14 02:19:13;;;;;;;19.83;17.00;;;21.90;99.90;;;;;;6128556;23;20865;-50
2021/07/14 02:21:39;;;;;;;21.63;16.73;;;21.90;99.90;;;;;;6128800;23;20477;-47
2021/07/14 02:24:09;;;;;;;18.73;15.30;;;21.90;99.90;;;;;;6128675;23;20399;-45
2021/07/14 02:26:36;;;;;;;19.40;16.20;;;21.90;99.90;;;;;;6128853;23;20403;-48
2021/07/14 02:29:05;;;;;;;20.47;16.60;;;21.80;99.90;;;;;;6158037;23;20434;-44
2021/07/14 02:31:31;;;;;;;23.47;18.10;;;21.80;99.90;;;;;;6158131;23;20929;-51
2021/07/14 02:33:58;;;;;;;24.60;17.70;;;21.80;99.90;;;;;;6157718;23;20406;-51
2021/07/14 02:36:29;;;;;;;18.00;16.07;;;21.80;99.90;;;;;;6158245;23;20422;-51
2021/07/14 02:39:01;;;;;;;23.07;18.27;;;21.80;99.90;;;;;;6158381;23;20829;-51
2021/07/14 02:41:32;;;;;;;21.37;16.87;;;21.80;99.90;;;;;;6158371;23;20426;-48
2021/07/14 02:44:04;;;;;;;21.50;18.43;;;21.80;99.90;;;;;;6158176;23;20493;-43
2021/07/14 02:46:36;;;;;;;20.73;17.87;;;21.80;99.90;;;;;;6158337;23;20401;-46
2021/07/14 02:49:06;;;;;;;20.43;16.67;;;21.80;99.90;;;;;;6158544;23;20441;-50
2021/07/14 02:51:36;;;;;;;18.10;16.20;;;21.80;99.90;;;;;;6158439;23;20480;-49
2021/07/14 02:54:06;;;;;;;19.40;16.93;;;21.80;99.90;;;;;;6157588;23;20979;-49
2021/07/14 02:56:34;;;;;;;18.33;15.63;;;21.80;99.90;;;;;;6157954;23;20417;-48
2021/07/14 02:59:05;;;;;;;19.93;17.20;;;21.80;99.90;;;;;;6158227;23;20477;-44
2021/07/14 03:01:34;;;;;;;21.97;16.67;;;21.80;99.90;;;;;;6158378;23;20455;-48
2021/07/14 03:04:01;;;;;;;18.53;16.23;;;21.80;99.90;;;;;;6158042;23;20472;-48
2021/07/14 03:06:32;;;;;;;20.40;16.50;;;21.70;99.90;;;;;;6158265;23;20449;-46
2021/07/14 03:09:04;;;;;;;21.80;17.03;;;21.80;99.90;;;;;;6158063;23;20853;-51
2021/07/14 03:11:34;;;;;;;18.80;16.20;;;21.80;99.90;;;;;;6158480;23;20484;-47
2021/07/14 03:14:01;;;;;;;19.70;14.53;;;21.80;99.90;;;;;;6157693;23;20496;-45
2021/07/14 03:16:29;;;;;;;20.27;15.10;;;21.80;99.90;;;;;;6158071;23;20468;-45
2021/07/14 03:18:56;;;;;;;21.17;17.20;;;21.70;99.90;;;;;;6157773;23;20928;-44
2021/07/14 03:21:23;;;;;;;22.03;16.30;;;21.70;99.90;;;;;;6158135;23;20441;-45
2021/07/14 03:23:50;;;;;;;20.63;16.17;;;21.70;99.90;;;;;;6157841;23;20406;-43
2021/07/14 03:26:19;;;;;;;16.47;13.43;;;21.70;99.90;;;;;;6159776;23;20417;-51
2021/07/14 03:28:46;;;;;;;18.00;15.37;;;21.60;99.90;;;;;;6134066;23;20501;-51
2021/07/14 03:31:13;;;;;;;16.93;14.17;;;21.60;99.90;;;;;;6130397;23;20402;-49
2021/07/14 03:33:40;;;;;;;15.13;13.50;;;21.60;99.90;;;;;;6130604;23;20484;-46
2021/07/14 03:36:07;;;;;;;17.20;13.80;;;21.60;99.90;;;;;;6131268;23;20417;-45
2021/07/14 03:38:36;;;;;;;17.00;13.77;;;21.60;99.90;;;;;;6130468;23;20498;-49
2021/07/14 03:41:04;;;;;;;19.10;13.50;;;21.60;99.90;;;;;;6130218;23;20449;-44
2021/07/14 03:43:34;;;;;;;21.00;15.37;;;21.60;99.90;;;;;;6130138;23;20423;-45
2021/07/14 03:46:02;;;;;;;20.23;14.40;;;21.60;99.90;;;;;;6130581;23;20473;-44
2021/07/14 03:48:31;;;;;;;13.30;11.43;;;21.60;99.90;;;;;;6130218;23;20406;-46
2021/07/14 03:51:00;;;;;;;14.67;13.03;;;21.60;99.90;;;;;;6130311;23;20698;-48
2021/07/14 03:53:28;;;;;;;14.67;12.80;;;21.60;99.90;;;;;;6130787;23;20437;-51
2021/07/14 03:55:55;;;;;;;17.13;12.17;;;21.60;99.90;;;;;;6129847;23;20743;-49
2021/07/14 03:58:24;;;;;;;17.17;12.63;;;21.60;99.90;;;;;;6129991;23;20406;-50
2021/07/14 04:00:53;;;;;;;19.97;13.37;;;21.60;99.90;;;;;;6130208;23;20481;-50
2021/07/14 04:03:24;;;;;;;16.27;14.00;;;21.50;99.90;;;;;;6129492;23;20426;-51
2021/07/14 04:05:55;;;;;;;17.00;12.07;;;21.50;99.90;;;;;;6130170;23;20395;-50
2021/07/14 04:08:25;;;;;;;25.37;12.87;;;21.50;99.90;;;;;;6129619;23;20422;-46
2021/07/14 04:10:52;;;;;;;14.60;11.43;;;21.40;99.90;;;;;;6129977;23;20466;-49
2021/07/14 04:13:18;;;;;;;14.00;11.33;;;21.40;99.90;;;;;;6129654;23;20699;-46
2021/07/14 04:15:45;;;;;;;14.43;12.00;;;21.40;99.90;;;;;;6129559;23;20470;-47
2021/07/14 04:18:13;;;;;;;18.70;13.33;;;21.40;99.90;;;;;;6129737;23;20458;-49
2021/07/14 04:20:41;;;;;;;13.40;12.00;;;21.30;99.90;;;;;;6130167;23;20406;-43
2021/07/14 04:23:09;;;;;;;18.90;14.90;;;21.30;99.90;;;;;;6129928;23;20410;-45
2021/07/14 04:25:35;;;;;;;17.10;13.43;;;21.20;99.90;;;;;;6129531;23;20977;-45
2021/07/14 04:28:02;;;;;;;19.50;14.10;;;21.20;99.90;;;;;;6129550;23;20447;-47
2021/07/14 04:30:29;;;;;;;20.67;14.17;;;21.20;99.90;;;;;;6129738;23;20407;-48
2021/07/14 04:32:55;;;;;;;19.83;14.63;;;21.10;99.90;;;;;;6129701;23;20756;-49
2021/07/14 04:35:23;;;;;;;21.20;13.37;;;21.00;99.90;;;;;;6129957;23;20754;-50
2021/07/14 04:37:50;;;;;;;21.10;13.40;;;21.00;99.90;;;;;;6129360;23;20473;-46
2021/07/14 04:40:17;;;;;;;19.10;13.33;;;21.00;99.90;;;;;;6129336;23;20497;-48
2021/07/14 04:42:44;;;;;;;19.03;13.20;;;21.00;99.90;;;;;;6129719;23;20525;-46
2021/07/14 04:45:11;;;;;;;21.13;12.80;;;21.00;99.90;;;;;;6129525;23;20488;-44
2021/07/14 04:47:38;;;;;;;26.40;15.00;;;21.00;99.90;;;;;;6129195;23;20398;-48
2021/07/14 04:50:06;;;;;;;24.33;15.70;;;21.00;99.90;;;;;;6129640;23;20411;-47
2021/07/14 04:52:34;;;;;;;31.43;16.97;;;21.00;99.90;;;;;;6129941;23;20457;-45
2021/07/14 04:55:01;;;;;;;24.13;13.70;;;21.00;99.90;;;;;;6130310;23;20688;-46
2021/07/14 04:57:28;;;;;;;25.73;17.40;;;21.10;99.90;;;;;;6129705;23;20920;-47
2021/07/14 04:59:55;;;;;;;23.23;15.67;;;21.10;99.90;;;;;;6129945;23;20757;-47
2021/07/14 05:02:23;;;;;;;25.67;15.93;;;21.10;99.90;;;;;;6129547;23;20474;-47
2021/07/14 05:04:50;;;;;;;37.27;17.23;;;21.20;99.90;;;;;;6130021;23;20407;-49
2021/07/14 05:07:17;;;;;;;24.57;15.80;;;21.20;99.90;;;;;;6129335;23;20423;-46
2021/07/14 05:09:45;;;;;;;27.80;15.10;;;21.30;99.90;;;;;;6129488;23;20412;-47
2021/07/14 05:12:11;;;;;;;26.07;16.20;;;21.40;99.90;;;;;;6129600;23;20410;-52
2021/07/14 05:14:38;;;;;;;25.13;17.07;;;21.40;99.90;;;;;;6129517;23;20415;-49
2021/07/14 05:17:05;;;;;;;26.57;15.27;;;21.50;99.90;;;;;;6129901;23;20407;-44
2021/07/14 05:19:31;;;;;;;21.57;14.60;;;21.50;99.90;;;;;;6129670;23;20407;-49
2021/07/14 05:21:58;;;;;;;21.10;15.50;;;21.60;99.90;;;;;;6129208;23;20434;-50
2021/07/14 05:24:24;;;;;;;21.63;14.87;;;21.60;99.90;;;;;;6129410;23;20419;-50
2021/07/14 05:26:52;;;;;;;21.50;15.77;;;21.70;99.90;;;;;;6129239;23;20921;-50
2021/07/14 05:29:19;;;;;;;18.80;14.97;;;21.80;99.90;;;;;;6130113;23;20395;-44
2021/07/14 05:31:46;;;;;;;24.63;14.23;;;21.80;99.90;;;;;;6130002;23;20477;-49
2021/07/14 05:34:13;;;;;;;23.53;16.97;;;21.90;99.90;;;;;;6129855;23;20422;-50
2021/07/14 05:36:40;;;;;;;20.40;15.03;;;21.90;99.90;;;;;;6129106;23;20410;-50
2021/07/14 05:39:06;;;;;;;18.10;13.40;;;21.90;99.90;;;;;;6129287;23;20414;-47
2021/07/14 05:41:33;;;;;;;25.17;15.50;;;22.00;99.90;;;;;;6129168;23;20798;-49
2021/07/14 05:44:01;;;;;;;21.93;15.93;;;22.00;99.90;;;;;;6129277;23;20411;-49
2021/07/14 05:46:28;;;;;;;29.33;15.90;;;22.10;99.90;;;;;;6128808;23;20414;-50
2021/07/14 05:49:00;;;;;;;21.07;14.67;;;22.20;99.90;;;;;;6128659;23;20422;-49
2021/07/14 05:51:26;;;;;;;23.70;15.53;;;22.30;99.90;;;;;;6128641;23;20395;-46
2021/07/14 05:53:53;;;;;;;19.60;14.13;;;22.40;99.90;;;;;;6129148;23;20414;-46
2021/07/14 05:56:20;;;;;;;19.63;15.30;;;22.50;99.90;;;;;;6129065;23;20410;-49
2021/07/14 05:58:46;;;;;;;20.00;15.00;;;22.50;99.90;;;;;;6128900;23;20414;-49
2021/07/14 06:01:14;;;;;;;19.63;15.10;;;22.60;99.90;;;;;;6128558;23;20410;-49
2021/07/14 06:03:42;;;;;;;17.37;12.97;;;22.70;99.90;;;;;;6128672;23;20415;-49
2021/07/14 06:06:09;;;;;;;15.43;13.73;;;22.80;99.90;;;;;;6127378;23;20410;-48
2021/07/14 06:08:36;;;;;;;17.50;13.10;;;22.90;99.90;;;;;;6127567;23;20934;-44
2021/07/14 06:11:03;;;;;;;20.73;13.17;;;23.00;99.90;;;;;;6127472;23;20707;-47
2021/07/14 06:13:29;;;;;;;16.00;14.30;;;23.00;99.90;;;;;;6127209;23;20850;-45
2021/07/14 06:15:56;;;;;;;14.60;12.80;;;22.90;99.90;;;;;;6128904;23;20422;-49
2021/07/14 06:18:24;;;;;;;17.73;13.40;;;22.90;99.90;;;;;;6128343;23;20411;-47
2021/07/14 06:20:51;;;;;;;18.37;14.37;;;22.90;99.90;;;;;;6127912;23;20406;-49
2021/07/14 06:23:18;;;;;;;17.50;14.50;;;22.90;99.90;;;;;;6127867;23;20446;-46
2021/07/14 06:25:45;;;;;;;15.80;13.87;;;22.90;99.90;;;;;;6127600;23;20407;-50
2021/07/14 06:28:13;;;;;;;21.63;14.00;;;22.90;99.90;;;;;;6127629;23;20432;-49
2021/07/14 06:30:40;;;;;;;20.77;16.40;;;22.90;99.90;;;;;;6127522;23;20454;-48
2021/07/14 06:33:08;;;;;;;20.63;14.93;;;22.90;99.90;;;;;;6127965;23;20423;-46
2021/07/14 06:35:37;;;;;;;23.13;14.73;;;22.70;99.90;;;;;;6127635;23;20411;-46
2021/07/14 06:38:08;;;;;;;17.80;14.80;;;22.70;99.90;;;;;;6127828;23;20406;-48
2021/07/14 06:40:37;;;;;;;19.80;15.17;;;22.60;99.90;;;;;;6127697;23;20390;-46
2021/07/14 06:43:05;;;;;;;17.20;14.67;;;22.50;99.90;;;;;;6127231;23;20474;-44
2021/07/14 06:45:32;;;;;;;18.40;15.90;;;22.40;99.90;;;;;;6127765;23;20421;-43
2021/07/14 06:47:59;;;;;;;19.53;14.30;;;22.40;99.90;;;;;;6127363;23;20410;-51
2021/07/14 06:50:26;;;;;;;24.93;15.77;;;22.40;99.90;;;;;;6127886;23;20419;-51
2021/07/14 06:52:54;;;;;;;20.83;15.70;;;22.40;99.90;;;;;;6127524;23;20409;-46
2021/07/14 06:55:21;;;;;;;16.60;14.13;;;22.50;99.90;;;;;;6127834;23;20403;-47
2021/07/14 06:57:48;;;;;;;15.43;13.80;;;22.50;99.90;;;;;;6127710;23;20727;-49
2021/07/14 07:00:15;;;;;;;16.23;14.53;;;22.60;99.90;;;;;;6128179;23;20434;-47
2021/07/14 07:02:43;;;;;;;17.80;15.93;;;22.60;99.90;;;;;;6129693;23;20441;-51
2021/07/14 07:05:11;;;;;;;19.90;14.67;;;22.70;99.90;;;;;;6129519;23;20395;-49
2021/07/14 07:07:38;;;;;;;14.53;13.00;;;22.70;99.90;;;;;;6129447;23;20406;-50
2021/07/14 07:10:08;;;;;;;16.50;13.30;;;22.70;99.90;;;;;;6129668;23;20750;-49
2021/07/14 07:12:35;;;;;;;20.53;14.90;;;22.70;99.90;;;;;;6129835;23;20462;-49
2021/07/14 07:15:03;;;;;;;15.80;14.10;;;22.70;99.90;;;;;;6129807;23;20422;-46
2021/07/14 07:17:30;;;;;;;16.10;13.60;;;22.70;99.90;;;;;;6129182;23;20406;-50
2021/07/14 07:19:57;;;;;;;17.07;14.27;;;22.70;99.90;;;;;;6129764;23;20418;-46
2021/07/14 07:22:24;;;;;;;18.50;13.17;;;22.80;99.90;;;;;;6129080;23;21005;-46
2021/07/14 07:24:50;;;;;;;15.10;13.50;;;22.90;99.90;;;;;;6129573;23;20407;-45
2021/07/14 07:27:18;;;;;;;16.30;14.33;;;23.00;99.90;;;;;;6129241;23;20494;-47
2021/07/14 07:29:45;;;;;;;12.80;11.50;;;23.10;99.90;;;;;;6129748;23;20690;-49
2021/07/14 07:32:12;;;;;;;16.80;12.67;;;23.10;99.90;;;;;;6129454;23;20493;-48
2021/07/14 07:34:38;;;;;;;15.70;14.00;;;23.30;99.90;;;;;;6129507;23;20469;-45
2021/07/14 07:37:05;;;;;;;15.90;12.70;;;23.30;99.90;;;;;;6129338;23;20406;-47
2021/07/14 07:39:32;;;;;;;13.60;12.30;;;23.40;99.90;;;;;;6129405;23;20481;-46
2021/07/14 07:42:02;;;;;;;18.93;13.47;;;23.40;99.90;;;;;;6129232;23;20771;-49
2021/07/14 07:44:30;;;;;;;15.17;13.50;;;23.40;99.90;;;;;;6129318;23;20493;-47
2021/07/14 07:46:57;;;;;;;16.33;12.63;;;23.50;99.90;;;;;;6129266;23;20516;-50
2021/07/14 07:49:24;;;;;;;16.73;14.73;;;23.40;99.90;;;;;;6128928;23;20406;-44
2021/07/14 07:51:52;;;;;;;17.17;15.37;;;23.50;99.90;;;;;;6129385;23;20414;-49
2021/07/14 07:54:18;;;;;;;16.10;14.43;;;23.50;99.90;;;;;;6128504;23;20933;-52
2021/07/14 07:56:45;;;;;;;20.80;14.13;;;23.50;99.90;;;;;;6129259;23;20469;-49
2021/07/14 07:59:12;;;;;;;15.10;13.27;;;23.40;99.90;;;;;;6129317;23;20457;-49
2021/07/14 08:01:40;;;;;;;13.43;12.13;;;23.50;99.90;;;;;;6129267;23;20418;-49
2021/07/14 08:04:07;;;;;;;18.33;14.97;;;23.40;99.90;;;;;;6128687;23;20731;-49
2021/07/14 08:06:34;;;;;;;17.20;15.40;;;23.40;99.90;;;;;;6128517;23;20406;-44
2021/07/14 08:09:02;;;;;;;15.53;13.30;;;23.20;99.90;;;;;;6129176;23;20421;-49
2021/07/14 08:11:30;;;;;;;16.03;13.70;;;23.20;99.90;;;;;;6128005;23;20870;-48
2021/07/14 08:13:59;;;;;;;13.80;12.50;;;23.50;99.90;;;;;;6128711;23;20403;-50
2021/07/14 08:16:27;;;;;;;16.20;13.30;;;24.50;99.90;;;;;;6129012;23;20473;-49
2021/07/14 08:18:55;;;;;;;12.23;11.00;;;25.60;99.90;;;;;;6129006;23;20423;-46
2021/07/14 08:21:23;;;;;;;12.73;11.57;;;26.20;99.90;;;;;;6128949;23;20411;-45
2021/07/14 08:23:53;;;;;;;12.90;11.33;;;26.20;99.90;;;;;;6128523;23;20731;-43
2021/07/14 08:26:20;;;;;;;17.60;11.13;;;26.40;99.90;;;;;;6129440;23;20417;-45
2021/07/14 08:28:47;;;;;;;12.60;9.67;;;26.50;99.90;;;;;;6128712;23;20521;-46
2021/07/14 08:31:14;;;;;;;13.13;11.43;;;26.20;99.90;;;;;;6128771;23;20415;-46
2021/07/14 08:33:40;;;;;;;11.80;10.43;;;25.90;99.90;;;;;;6129044;23;20407;-45
2021/07/14 08:36:09;;;;;;;10.97;9.97;;;25.60;99.90;;;;;;6128565;23;20680;-47
2021/07/14 08:38:35;;;;;;;11.63;10.50;;;25.40;99.90;;;;;;6128534;23;20407;-49
2021/07/14 08:41:04;;;;;;;12.90;10.63;;;25.10;99.90;;;;;;6128824;23;20474;-46
2021/07/14 08:43:33;;;;;;;12.73;11.57;;;24.70;99.90;;;;;;6128613;23;20438;-48
2021/07/14 08:46:00;;;;;;;12.10;11.00;;;24.60;99.90;;;;;;6129071;23;20874;-46
2021/07/14 08:48:27;;;;;;;12.50;11.30;;;24.50;99.90;;;;;;6128320;23;20449;-51
2021/07/14 08:50:57;;;;;;;13.73;12.43;;;24.50;99.90;;;;;;6127893;23;20442;-47
2021/07/14 08:53:27;;;;;;;12.93;11.70;;;24.50;99.90;;;;;;6128796;23;20395;-49
2021/07/14 08:55:56;;;;;;;14.33;12.40;;;24.50;99.90;;;;;;6128930;23;20489;-44
2021/07/14 08:58:24;;;;;;;16.63;13.30;;;24.50;99.90;;;;;;6128772;23;20465;-49
2021/07/14 09:00:53;;;;;;;16.40;14.80;;;24.30;99.90;;;;;;6128682;23;20419;-44
2021/07/14 09:03:20;;;;;;;17.50;14.40;;;24.10;99.90;;;;;;6128611;23;20447;-43
2021/07/14 09:05:47;;;;;;;15.30;13.70;;;24.40;99.90;;;;;;6128615;23;20753;-50
2021/07/14 09:08:16;;;;;;;13.80;12.50;;;25.20;99.90;;;;;;6128450;23;20419;-48
2021/07/14 09:10:45;;;;;;;15.33;13.83;;;25.80;99.90;;;;;;6128643;23;20410;-46
2021/07/14 09:13:14;;;;;;;16.17;14.57;;;25.90;99.90;;;;;;6128241;23;20403;-44
2021/07/14 09:15:43;;;;;;;14.60;12.60;;;25.90;99.90;;;;;;6127858;23;20406;-44
2021/07/14 09:18:13;;;;;;;15.77;12.60;;;25.80;99.90;;;;;;6128329;23;20501;-46
2021/07/14 09:20:40;;;;;;;13.57;12.40;;;26.10;99.90;;;;;;6128072;23;20407;-50
2021/07/14 09:23:09;;;;;;;13.40;12.20;;;26.90;99.90;;;;;;6128238;23;20446;-47
2021/07/14 09:25:41;;;;;;;14.10;11.93;;;28.00;99.90;;;;;;6128340;23;20422;-48
2021/07/14 09:28:10;;;;;;;14.97;13.07;;;29.20;99.90;;;;;;6128129;23;20715;-49
2021/07/14 09:30:38;;;;;;;14.57;13.13;;;29.70;99.90;;;;;;6127886;23;20411;-48
2021/07/14 09:33:06;;;;;;;13.37;11.97;;;30.10;99.90;;;;;;6128378;23;20465;-49
2021/07/14 09:35:35;;;;;;;12.33;11.13;;;30.40;99.90;;;;;;6127783;23;20890;-45
2021/07/14 09:38:05;;;;;;;13.40;12.13;;;30.40;99.90;;;;;;6128182;23;20481;-46
2021/07/14 09:40:32;;;;;;;10.93;9.93;;;30.40;99.90;;;;;;6127709;23;20407;-50
2021/07/14 09:43:03;;;;;;;12.60;11.03;;;30.20;99.90;;;;;;6127803;23;20438;-49
2021/07/14 09:45:46;;;;;;;11.03;9.23;;;30.00;99.90;;;;;;6128063;23;20485;-48
2021/07/14 09:48:16;;;;;;;11.97;10.60;;;29.80;99.90;;;;;;6128071;23;20437;-44
2021/07/14 09:50:45;;;;;;;13.53;10.97;;;29.30;99.90;;;;;;6128049;23;20414;-43
2021/07/14 09:53:16;;;;;;;11.33;10.23;;;28.80;99.90;;;;;;6127857;23;20473;-48
2021/07/14 09:55:43;;;;;;;12.40;11.10;;;28.60;99.90;;;;;;6128137;23;20399;-47
2021/07/14 09:58:12;;;;;;;11.17;10.20;;;28.30;99.90;;;;;;6128010;23;20425;-48
2021/07/14 10:00:48;;;;;;;13.63;10.80;;;27.90;99.90;;;;;;6127921;23;20492;-48
2021/07/14 10:03:20;;;;;;;12.83;10.20;;;27.40;99.90;;;;;;6127623;23;20446;-48
2021/07/14 10:05:47;;;;;;;13.27;10.40;;;27.00;99.90;;;;;;6127707;23;20406;-48
2021/07/14 10:08:21;;;;;;;12.47;11.20;;;26.70;99.90;;;;;;6128047;23;20438;-49
2021/07/14 10:10:50;;;;;;;11.00;10.00;;;26.40;99.90;;;;;;6128032;23;20870;-45
2021/07/14 10:13:21;;;;;;;11.30;10.30;;;26.10;99.90;;;;;;6127883;23;20679;-44
2021/07/14 10:16:01;;;;;;;12.63;11.33;;;25.90;99.90;;;;;;6127723;23;20402;-47
2021/07/14 10:18:28;;;;;;;11.63;9.97;;;25.60;99.90;;;;;;6127814;23;20826;-50
2021/07/14 10:20:55;;;;;;;11.70;10.57;;;25.50;99.90;;;;;;6127511;23;20411;-47
2021/07/14 10:23:23;;;;;;;10.73;9.83;;;25.50;99.90;;;;;;6127398;23;20478;-50
2021/07/14 10:25:51;;;;;;;18.40;10.73;;;25.50;99.90;;;;;;6127823;23;20418;-48
2021/07/14 10:28:19;;;;;;;11.30;10.30;;;25.50;99.90;;;;;;6127585;23;20434;-43
2021/07/14 10:30:50;;;;;;;13.33;11.93;;;25.50;99.90;;;;;;6127751;23;20410;-46
2021/07/14 10:33:19;;;;;;;11.70;10.60;;;25.60;99.90;;;;;;6127292;23;20406;-46
2021/07/14 10:35:47;;;;;;;10.87;9.80;;;25.70;99.90;;;;;;6127363;23;20406;-46
2021/07/14 10:38:16;;;;;;;18.67;14.13;;;25.90;99.90;;;;;;6127663;23;20414;-46
2021/07/14 10:40:45;;;;;;;11.33;10.33;;;26.10;99.90;;;;;;6127654;23;20675;-46
2021/07/14 10:43:16;;;;;;;10.40;9.37;;;26.20;99.90;;;;;;6127588;23;20502;-46
2021/07/14 10:45:45;;;;;;;9.60;8.37;;;26.30;99.90;;;;;;6127633;23;20430;-43
2021/07/14 10:48:15;;;;;;;9.73;8.73;;;26.30;99.90;;;;;;6127662;23;20442;-43
2021/07/14 10:50:41;;;;;;;9.43;8.63;;;26.40;99.90;;;;;;6127653;23;20497;-51
2021/07/14 10:53:11;;;;;;;9.27;8.47;;;26.20;99.90;;;;;;6127641;23;20473;-49
2021/07/14 10:55:39;;;;;;;8.13;7.43;;;26.10;99.90;;;;;;6127237;23;20410;-48
2021/07/14 10:58:06;;;;;;;9.40;8.57;;;26.10;99.90;;;;;;6127844;23;20454;-50
2021/07/14 11:00:38;;;;;;;10.60;7.77;;;26.20;99.90;;;;;;6127629;23;20407;-50
2021/07/14 11:03:05;;;;;;;9.17;8.27;;;26.20;99.90;;;;;;6127575;23;20423;-48
2021/07/14 11:05:45;;;;;;;8.60;7.77;;;26.30;99.90;;;;;;6127444;23;20423;-50
2021/07/14 11:08:12;;;;;;;8.73;7.80;;;26.30;99.90;;;;;;6127250;23;20399;-47
2021/07/14 11:10:40;;;;;;;8.43;7.63;;;26.30;99.90;;;;;;6128443;23;20442;-42
2021/07/14 11:13:29;;;;;;;8.70;7.33;;;26.20;99.90;;;;;;6127430;23;20414;-42
2021/07/14 11:15:56;;;;;;;8.40;7.60;;;26.20;99.90;;;;;;6121207;23;20739;-45
2021/07/14 11:18:40;;;;;;;12.80;8.50;;;26.10;99.90;;;;;;6127649;23;20481;-44
2021/07/14 11:21:09;;;;;;;8.30;7.57;;;26.10;99.90;;;;;;6127290;23;20391;-43
2021/07/14 11:23:35;;;;;;;7.90;6.70;;;26.20;99.90;;;;;;6127485;23;20454;-48
2021/07/14 11:26:04;;;;;;;9.63;8.13;;;26.30;99.90;;;;;;6127534;23;20699;-47
2021/07/14 11:28:32;;;;;;;8.03;7.33;;;26.40;99.90;;;;;;6127089;23;20454;-44
2021/07/14 11:31:09;;;;;;;8.90;7.60;;;26.70;99.90;;;;;;6127462;23;20465;-42
2021/07/14 11:33:37;;;;;;;8.63;7.80;;;27.00;99.90;;;;;;6127551;23;20714;-47
2021/07/14 11:36:06;;;;;;;7.17;6.33;;;27.00;99.90;;;;;;6127214;23;20877;-44
2021/07/14 11:38:44;;;;;;;7.47;6.77;;;27.00;99.90;;;;;;6127562;23;20410;-45
2021/07/14 11:41:20;;;;;;;9.40;8.50;;;27.10;99.90;;;;;;6127530;23;20402;-47
2021/07/14 11:43:47;;;;;;;8.10;7.30;;;27.20;99.90;;;;;;6127536;23;20509;-47
2021/07/14 11:46:16;;;;;;;8.03;6.87;;;27.30;99.90;;;;;;6128175;23;20607;-45
2021/07/14 11:48:45;;;;;;;6.70;6.10;;;27.60;99.90;;;;;;6129325;23;20761;-44
2021/07/14 11:51:25;;;;;;;7.07;6.47;;;27.80;99.90;;;;;;6128931;23;20410;-47
2021/07/14 11:53:54;;;;;;;7.47;6.20;;;28.00;99.90;;;;;;6129258;23;20402;-45
2021/07/14 11:56:32;;;;;;;7.77;7.07;;;28.10;99.90;;;;;;6129285;23;20493;-46
2021/07/14 11:59:05;;;;;;;7.63;6.90;;;28.10;99.90;;;;;;6129064;23;20394;-43
2021/07/14 12:02:00;;;;;;;7.30;6.47;;;27.90;99.90;;;;;;6129027;23;20395;-43
2021/07/14 12:04:36;;;;;;;10.67;6.30;;;27.80;99.90;;;;;;6129269;23;20431;-44
2021/07/14 12:07:06;;;;;;;7.17;6.47;;;27.80;99.90;;;;;;6129318;23;20406;-42
2021/07/14 12:09:36;;;;;;;8.00;5.50;;;27.70;99.90;;;;;;6129318;23;20394;-42
2021/07/14 12:12:08;;;;;;;6.80;6.30;;;27.70;99.90;;;;;;6129329;23;20398;-47
2021/07/14 12:14:37;;;;;;;11.10;7.00;;;27.80;99.90;;;;;;6128627;23;20407;-48
2021/07/14 12:17:07;;;;;;;5.97;5.47;;;27.80;99.90;;;;;;6129012;23;20938;-46
2021/07/14 12:19:36;;;;;;;6.57;5.90;;;28.10;99.90;;;;;;6128618;23;20826;-43
2021/07/14 12:22:06;;;;;;;6.40;5.90;;;28.20;99.90;;;;;;6128608;23;20406;-45
2021/07/14 12:24:37;;;;;;;8.63;7.47;;;28.30;99.90;;;;;;6128774;23;20445;-47
2021/07/14 12:27:12;;;;;;;13.27;6.60;;;28.50;99.90;;;;;;6128501;23;20450;-44
2021/07/14 12:29:38;;;;;;;6.67;6.07;;;28.50;99.90;;;;;;6128569;23;20391;-48
2021/07/14 12:32:06;;;;;;;8.33;6.00;;;28.30;99.90;;;;;;6128824;23;20414;-48
2021/07/14 12:34:34;;;;;;;6.60;6.00;;;28.20;99.90;;;;;;6128418;23;20427;-42
2021/07/14 12:37:03;;;;;;;6.87;6.23;;;27.80;99.90;;;;;;6129176;23;20410;-44
2021/07/14 12:39:31;;;;;;;6.40;5.80;;;27.50;99.90;;;;;;6128482;23;20406;-49
2021/07/14 12:42:01;;;;;;;7.73;6.57;;;27.20;99.90;;;;;;6128329;23;20423;-44
2021/07/14 12:44:28;;;;;;;6.33;5.83;;;27.00;99.90;;;;;;6128687;23;20738;-44
2021/07/14 12:46:55;;;;;;;8.90;6.37;;;27.00;99.90;;;;;;6128272;23;20411;-44
2021/07/14 12:49:24;;;;;;;6.73;5.67;;;27.20;99.90;;;;;;6128623;23;20423;-42